Terminal Aerodrome Forecast
Issued by NWS Sterling, VA

Current Version | Previous Version | Graphics & Text | Print | Product List | Glossary On
Versions: 1 2 3 4 5 6 7 8 9 10 11 12 13
000
FTUS41 KLWX 172336
TAFMRB
TAF
KMRB 172336Z 1800/1824 VRB03KT P6SM SCT050 BKN130
     FM180400 VRB03KT 5SM BR SCT130
     FM180800 00000KT 2SM BR SCT130
     FM181200 VRB03KT P6SM SCT130
     FM181600 16006KT P6SM BKN050=

USA.gov is the U.S. government's official web portal to all federal, state and local government web resources and services.